sensor_id;sensor_type;location;lat;lon;timestamp;P1;durP1;ratioP1;P2;durP2;ratioP2
42124;SDS011;27787;44.594;11.046;2023-07-29T00:02:26;6.03;;;3.38;;
42124;SDS011;27787;44.594;11.046;2023-07-29T00:05:13;6.30;;;3.35;;
42124;SDS011;27787;44.594;11.046;2023-07-29T00:07:57;10.02;;;3.50;;
42124;SDS011;27787;44.594;11.046;2023-07-29T00:10:41;9.52;;;3.63;;
42124;SDS011;27787;44.594;11.046;2023-07-29T00:13:25;6.43;;;4.03;;
42124;SDS011;27787;44.594;11.046;2023-07-29T00:16:10;8.02;;;3.95;;
42124;SDS011;27787;44.594;11.046;2023-07-29T00:18:54;8.93;;;3.30;;
42124;SDS011;27787;44.594;11.046;2023-07-29T00:21:38;6.50;;;3.53;;
42124;SDS011;27787;44.594;11.046;2023-07-29T00:24:22;12.35;;;4.22;;
42124;SDS011;27787;44.594;11.046;2023-07-29T00:27:06;5.63;;;3.15;;
42124;SDS011;27787;44.594;11.046;2023-07-29T00:29:50;10.93;;;3.40;;
42124;SDS011;27787;44.594;11.046;2023-07-29T00:32:35;6.82;;;3.05;;
42124;SDS011;27787;44.594;11.046;2023-07-29T00:35:20;8.05;;;3.70;;
42124;SDS011;27787;44.594;11.046;2023-07-29T00:38:04;6.53;;;3.67;;
42124;SDS011;27787;44.594;11.046;2023-07-29T00:40:48;6.80;;;3.33;;
42124;SDS011;27787;44.594;11.046;2023-07-29T00:43:33;6.05;;;3.17;;
42124;SDS011;27787;44.594;11.046;2023-07-29T00:46:19;7.75;;;3.22;;
42124;SDS011;27787;44.594;11.046;2023-07-29T00:49:04;5.80;;;3.05;;
42124;SDS011;27787;44.594;11.046;2023-07-29T00:51:49;5.43;;;3.20;;
42124;SDS011;27787;44.594;11.046;2023-07-29T00:54:33;9.10;;;3.22;;
42124;SDS011;27787;44.594;11.046;2023-07-29T00:57:18;5.68;;;3.25;;
42124;SDS011;27787;44.594;11.046;2023-07-29T01:00:03;5.32;;;3.30;;
42124;SDS011;27787;44.594;11.046;2023-07-29T01:02:48;8.93;;;3.38;;
42124;SDS011;27787;44.594;11.046;2023-07-29T01:05:36;5.88;;;3.20;;
42124;SDS011;27787;44.594;11.046;2023-07-29T01:08:33;5.50;;;3.00;;
42124;SDS011;27787;44.594;11.046;2023-07-29T01:14:39;9.02;;;3.20;;
42124;SDS011;27787;44.594;11.046;2023-07-29T01:17:39;5.80;;;2.93;;
42124;SDS011;27787;44.594;11.046;2023-07-29T01:20:26;5.18;;;3.28;;
42124;SDS011;27787;44.594;11.046;2023-07-29T01:23:13;5.22;;;3.30;;
42124;SDS011;27787;44.594;11.046;2023-07-29T01:25:57;4.90;;;3.03;;
42124;SDS011;27787;44.594;11.046;2023-07-29T01:28:42;11.50;;;3.28;;
42124;SDS011;27787;44.594;11.046;2023-07-29T01:31:44;6.28;;;3.55;;
42124;SDS011;27787;44.594;11.046;2023-07-29T01:34:35;8.18;;;3.70;;
42124;SDS011;27787;44.594;11.046;2023-07-29T01:37:26;6.35;;;3.38;;
42124;SDS011;27787;44.594;11.046;2023-07-29T01:40:11;8.95;;;3.78;;
42124;SDS011;27787;44.594;11.046;2023-07-29T01:42:57;6.90;;;4.35;;
42124;SDS011;27787;44.594;11.046;2023-07-29T01:48:26;7.72;;;4.00;;
42124;SDS011;27787;44.594;11.046;2023-07-29T01:51:14;4.78;;;3.22;;
42124;SDS011;27787;44.594;11.046;2023-07-29T01:53:58;7.40;;;3.33;;
42124;SDS011;27787;44.594;11.046;2023-07-29T01:56:43;6.43;;;3.08;;
42124;SDS011;27787;44.594;11.046;2023-07-29T01:59:28;9.27;;;3.33;;
42124;SDS011;27787;44.594;11.046;2023-07-29T02:02:12;4.37;;;2.97;;
42124;SDS011;27787;44.594;11.046;2023-07-29T02:04:56;5.15;;;2.72;;
42124;SDS011;27787;44.594;11.046;2023-07-29T02:07:41;5.03;;;2.90;;
42124;SDS011;27787;44.594;11.046;2023-07-29T02:10:25;4.97;;;2.58;;
42124;SDS011;27787;44.594;11.046;2023-07-29T02:13:09;7.17;;;3.17;;
42124;SDS011;27787;44.594;11.046;2023-07-29T02:15:53;5.55;;;2.78;;
42124;SDS011;27787;44.594;11.046;2023-07-29T02:18:38;5.45;;;3.08;;
42124;SDS011;27787;44.594;11.046;2023-07-29T02:21:22;6.25;;;2.97;;
42124;SDS011;27787;44.594;11.046;2023-07-29T02:24:06;7.60;;;3.08;;
42124;SDS011;27787;44.594;11.046;2023-07-29T02:26:50;4.40;;;2.70;;
42124;SDS011;27787;44.594;11.046;2023-07-29T02:29:35;5.00;;;2.83;;
42124;SDS011;27787;44.594;11.046;2023-07-29T02:32:19;6.43;;;2.95;;
42124;SDS011;27787;44.594;11.046;2023-07-29T02:35:03;7.68;;;2.65;;
42124;SDS011;27787;44.594;11.046;2023-07-29T02:37:48;5.90;;;2.95;;
42124;SDS011;27787;44.594;11.046;2023-07-29T02:40:37;4.22;;;2.90;;
42124;SDS011;27787;44.594;11.046;2023-07-29T02:43:22;4.60;;;2.60;;
42124;SDS011;27787;44.594;11.046;2023-07-29T02:46:06;7.20;;;3.05;;
42124;SDS011;27787;44.594;11.046;2023-07-29T02:48:50;6.30;;;2.95;;
42124;SDS011;27787;44.594;11.046;2023-07-29T02:51:34;4.78;;;3.15;;
42124;SDS011;27787;44.594;11.046;2023-07-29T02:54:19;7.43;;;2.85;;
42124;SDS011;27787;44.594;11.046;2023-07-29T02:57:03;6.53;;;2.63;;
42124;SDS011;27787;44.594;11.046;2023-07-29T02:59:48;5.50;;;2.70;;
42124;SDS011;27787;44.594;11.046;2023-07-29T03:02:32;5.30;;;2.83;;
42124;SDS011;27787;44.594;11.046;2023-07-29T03:05:16;5.47;;;3.33;;
42124;SDS011;27787;44.594;11.046;2023-07-29T03:08:08;5.30;;;2.65;;
42124;SDS011;27787;44.594;11.046;2023-07-29T03:10:52;7.10;;;2.55;;
42124;SDS011;27787;44.594;11.046;2023-07-29T03:13:37;5.95;;;2.25;;
42124;SDS011;27787;44.594;11.046;2023-07-29T03:16:21;3.77;;;2.67;;
42124;SDS011;27787;44.594;11.046;2023-07-29T03:19:16;6.63;;;3.58;;
42124;SDS011;27787;44.594;11.046;2023-07-29T03:22:01;5.45;;;3.03;;
42124;SDS011;27787;44.594;11.046;2023-07-29T03:24:45;5.75;;;3.05;;
42124;SDS011;27787;44.594;11.046;2023-07-29T03:27:29;7.07;;;3.33;;
42124;SDS011;27787;44.594;11.046;2023-07-29T03:30:14;7.87;;;2.80;;
42124;SDS011;27787;44.594;11.046;2023-07-29T03:32:58;8.57;;;3.22;;
42124;SDS011;27787;44.594;11.046;2023-07-29T03:35:42;5.60;;;2.77;;
42124;SDS011;27787;44.594;11.046;2023-07-29T03:38:28;6.50;;;2.92;;
42124;SDS011;27787;44.594;11.046;2023-07-29T03:41:12;5.80;;;2.67;;
42124;SDS011;27787;44.594;11.046;2023-07-29T03:43:57;6.65;;;3.40;;
42124;SDS011;27787;44.594;11.046;2023-07-29T03:46:41;3.97;;;2.60;;
42124;SDS011;27787;44.594;11.046;2023-07-29T03:49:27;4.57;;;2.70;;
42124;SDS011;27787;44.594;11.046;2023-07-29T03:52:11;6.03;;;2.78;;
42124;SDS011;27787;44.594;11.046;2023-07-29T03:54:55;4.25;;;2.50;;
42124;SDS011;27787;44.594;11.046;2023-07-29T03:57:39;4.50;;;2.95;;
42124;SDS011;27787;44.594;11.046;2023-07-29T04:00:23;4.88;;;2.28;;
42124;SDS011;27787;44.594;11.046;2023-07-29T04:03:08;5.20;;;2.93;;
42124;SDS011;27787;44.594;11.046;2023-07-29T04:05:52;9.40;;;2.80;;
42124;SDS011;27787;44.594;11.046;2023-07-29T04:08:36;5.27;;;3.10;;
42124;SDS011;27787;44.594;11.046;2023-07-29T04:11:21;7.43;;;2.80;;
42124;SDS011;27787;44.594;11.046;2023-07-29T04:14:05;6.75;;;2.65;;
42124;SDS011;27787;44.594;11.046;2023-07-29T04:16:49;4.35;;;2.95;;
42124;SDS011;27787;44.594;11.046;2023-07-29T04:19:34;7.32;;;3.08;;
42124;SDS011;27787;44.594;11.046;2023-07-29T04:22:18;5.43;;;3.03;;
42124;SDS011;27787;44.594;11.046;2023-07-29T04:25:03;6.83;;;2.90;;
42124;SDS011;27787;44.594;11.046;2023-07-29T04:27:48;6.32;;;3.22;;
42124;SDS011;27787;44.594;11.046;2023-07-29T04:30:32;6.40;;;3.10;;
42124;SDS011;27787;44.594;11.046;2023-07-29T04:33:16;5.05;;;2.80;;
42124;SDS011;27787;44.594;11.046;2023-07-29T04:36:00;5.32;;;2.60;;
42124;SDS011;27787;44.594;11.046;2023-07-29T04:38:45;5.07;;;2.70;;
42124;SDS011;27787;44.594;11.046;2023-07-29T04:41:29;4.78;;;2.58;;
42124;SDS011;27787;44.594;11.046;2023-07-29T04:44:13;6.57;;;3.47;;
42124;SDS011;27787;44.594;11.046;2023-07-29T04:46:57;28.70;;;3.97;;
42124;SDS011;27787;44.594;11.046;2023-07-29T04:49:42;7.00;;;3.38;;
42124;SDS011;27787;44.594;11.046;2023-07-29T04:52:26;7.95;;;2.85;;
42124;SDS011;27787;44.594;11.046;2023-07-29T04:55:11;5.47;;;2.80;;
42124;SDS011;27787;44.594;11.046;2023-07-29T04:57:55;4.50;;;3.05;;
42124;SDS011;27787;44.594;11.046;2023-07-29T05:00:39;6.07;;;3.25;;
42124;SDS011;27787;44.594;11.046;2023-07-29T05:03:23;6.38;;;3.40;;
42124;SDS011;27787;44.594;11.046;2023-07-29T05:06:07;7.30;;;3.20;;
42124;SDS011;27787;44.594;11.046;2023-07-29T05:08:51;107.30;;;9.93;;
42124;SDS011;27787;44.594;11.046;2023-07-29T05:11:35;13.50;;;3.40;;
42124;SDS011;27787;44.594;11.046;2023-07-29T05:14:20;5.72;;;3.25;;
42124;SDS011;27787;44.594;11.046;2023-07-29T05:17:05;4.88;;;3.25;;
42124;SDS011;27787;44.594;11.046;2023-07-29T05:19:49;7.30;;;3.10;;
42124;SDS011;27787;44.594;11.046;2023-07-29T05:22:33;5.60;;;3.08;;
42124;SDS011;27787;44.594;11.046;2023-07-29T05:25:18;6.40;;;3.40;;
42124;SDS011;27787;44.594;11.046;2023-07-29T05:28:02;7.60;;;3.22;;
42124;SDS011;27787;44.594;11.046;2023-07-29T05:30:47;7.63;;;3.92;;
42124;SDS011;27787;44.594;11.046;2023-07-29T05:33:32;9.15;;;3.15;;
42124;SDS011;27787;44.594;11.046;2023-07-29T05:36:16;5.87;;;3.53;;
42124;SDS011;27787;44.594;11.046;2023-07-29T05:39:01;7.28;;;3.47;;
42124;SDS011;27787;44.594;11.046;2023-07-29T05:41:46;7.10;;;3.83;;
42124;SDS011;27787;44.594;11.046;2023-07-29T05:44:31;8.90;;;4.85;;
42124;SDS011;27787;44.594;11.046;2023-07-29T05:47:16;8.73;;;3.90;;
42124;SDS011;27787;44.594;11.046;2023-07-29T05:50:00;8.50;;;4.20;;
42124;SDS011;27787;44.594;11.046;2023-07-29T05:52:48;10.73;;;4.30;;
42124;SDS011;27787;44.594;11.046;2023-07-29T05:55:32;6.80;;;4.18;;
42124;SDS011;27787;44.594;11.046;2023-07-29T05:58:16;6.72;;;4.22;;
42124;SDS011;27787;44.594;11.046;2023-07-29T06:01:00;7.75;;;4.47;;
42124;SDS011;27787;44.594;11.046;2023-07-29T06:03:45;8.95;;;4.85;;
42124;SDS011;27787;44.594;11.046;2023-07-29T06:06:31;10.35;;;4.90;;
42124;SDS011;27787;44.594;11.046;2023-07-29T06:09:15;7.53;;;4.63;;
42124;SDS011;27787;44.594;11.046;2023-07-29T06:11:59;7.75;;;3.80;;
42124;SDS011;27787;44.594;11.046;2023-07-29T06:14:43;10.55;;;5.15;;
42124;SDS011;27787;44.594;11.046;2023-07-29T06:17:27;9.60;;;4.72;;
42124;SDS011;27787;44.594;11.046;2023-07-29T06:20:11;7.35;;;4.13;;
42124;SDS011;27787;44.594;11.046;2023-07-29T06:22:55;7.00;;;3.88;;
42124;SDS011;27787;44.594;11.046;2023-07-29T06:25:39;7.78;;;4.05;;
42124;SDS011;27787;44.594;11.046;2023-07-29T06:28:24;7.32;;;3.80;;
42124;SDS011;27787;44.594;11.046;2023-07-29T06:31:08;6.25;;;4.00;;
42124;SDS011;27787;44.594;11.046;2023-07-29T06:33:51;5.95;;;3.72;;
42124;SDS011;27787;44.594;11.046;2023-07-29T06:36:36;7.87;;;4.57;;
42124;SDS011;27787;44.594;11.046;2023-07-29T06:39:20;7.13;;;4.13;;
42124;SDS011;27787;44.594;11.046;2023-07-29T06:42:04;7.38;;;3.95;;
42124;SDS011;27787;44.594;11.046;2023-07-29T06:44:49;7.55;;;3.40;;
42124;SDS011;27787;44.594;11.046;2023-07-29T06:47:33;9.02;;;4.05;;
42124;SDS011;27787;44.594;11.046;2023-07-29T06:50:17;5.60;;;3.53;;
42124;SDS011;27787;44.594;11.046;2023-07-29T06:53:02;6.28;;;3.22;;
42124;SDS011;27787;44.594;11.046;2023-07-29T06:55:47;6.90;;;3.72;;
42124;SDS011;27787;44.594;11.046;2023-07-29T06:58:32;8.55;;;3.85;;
42124;SDS011;27787;44.594;11.046;2023-07-29T07:01:16;6.65;;;3.65;;
42124;SDS011;27787;44.594;11.046;2023-07-29T07:04:00;8.43;;;3.60;;
42124;SDS011;27787;44.594;11.046;2023-07-29T07:06:45;8.02;;;4.55;;
42124;SDS011;27787;44.594;11.046;2023-07-29T07:09:29;8.98;;;3.72;;
42124;SDS011;27787;44.594;11.046;2023-07-29T07:12:13;7.20;;;4.05;;
42124;SDS011;27787;44.594;11.046;2023-07-29T07:14:57;7.72;;;3.03;;
42124;SDS011;27787;44.594;11.046;2023-07-29T07:17:41;10.65;;;3.38;;
42124;SDS011;27787;44.594;11.046;2023-07-29T07:20:26;3.58;;;2.78;;
42124;SDS011;27787;44.594;11.046;2023-07-29T07:23:10;6.50;;;3.63;;
42124;SDS011;27787;44.594;11.046;2023-07-29T07:25:57;5.95;;;3.40;;
42124;SDS011;27787;44.594;11.046;2023-07-29T07:28:42;8.55;;;3.10;;
42124;SDS011;27787;44.594;11.046;2023-07-29T07:31:25;5.18;;;2.55;;
42124;SDS011;27787;44.594;11.046;2023-07-29T07:34:10;6.28;;;2.58;;
42124;SDS011;27787;44.594;11.046;2023-07-29T07:36:54;7.38;;;2.72;;
42124;SDS011;27787;44.594;11.046;2023-07-29T07:39:38;6.15;;;2.58;;
42124;SDS011;27787;44.594;11.046;2023-07-29T07:42:23;7.38;;;3.05;;
42124;SDS011;27787;44.594;11.046;2023-07-29T07:45:07;4.53;;;3.38;;
42124;SDS011;27787;44.594;11.046;2023-07-29T07:47:52;5.30;;;2.40;;
42124;SDS011;27787;44.594;11.046;2023-07-29T07:50:39;6.65;;;2.47;;
42124;SDS011;27787;44.594;11.046;2023-07-29T07:53:23;5.63;;;2.72;;
42124;SDS011;27787;44.594;11.046;2023-07-29T07:56:09;4.72;;;2.20;;
42124;SDS011;27787;44.594;11.046;2023-07-29T07:58:53;3.13;;;2.38;;
42124;SDS011;27787;44.594;11.046;2023-07-29T08:01:38;4.50;;;2.67;;
42124;SDS011;27787;44.594;11.046;2023-07-29T08:04:23;6.03;;;2.72;;
42124;SDS011;27787;44.594;11.046;2023-07-29T08:07:07;4.60;;;2.70;;
42124;SDS011;27787;44.594;11.046;2023-07-29T08:09:51;4.32;;;2.30;;
42124;SDS011;27787;44.594;11.046;2023-07-29T08:12:35;4.45;;;2.22;;
42124;SDS011;27787;44.594;11.046;2023-07-29T08:15:20;11.05;;;2.80;;
42124;SDS011;27787;44.594;11.046;2023-07-29T08:18:04;3.95;;;2.60;;
42124;SDS011;27787;44.594;11.046;2023-07-29T08:20:51;5.57;;;2.25;;
42124;SDS011;27787;44.594;11.046;2023-07-29T08:23:43;3.63;;;2.30;;
42124;SDS011;27787;44.594;11.046;2023-07-29T08:26:28;6.32;;;2.35;;
42124;SDS011;27787;44.594;11.046;2023-07-29T08:29:12;6.23;;;2.50;;
42124;SDS011;27787;44.594;11.046;2023-07-29T08:31:57;6.45;;;2.53;;
42124;SDS011;27787;44.594;11.046;2023-07-29T08:34:41;6.45;;;2.55;;
42124;SDS011;27787;44.594;11.046;2023-07-29T08:37:25;9.85;;;2.80;;
42124;SDS011;27787;44.594;11.046;2023-07-29T08:40:11;5.07;;;2.33;;
42124;SDS011;27787;44.594;11.046;2023-07-29T08:42:57;6.40;;;2.63;;
42124;SDS011;27787;44.594;11.046;2023-07-29T08:45:44;5.25;;;2.63;;
42124;SDS011;27787;44.594;11.046;2023-07-29T08:48:36;6.45;;;2.95;;
42124;SDS011;27787;44.594;11.046;2023-07-29T08:51:26;3.60;;;2.17;;
42124;SDS011;27787;44.594;11.046;2023-07-29T08:54:10;5.38;;;2.70;;
42124;SDS011;27787;44.594;11.046;2023-07-29T08:56:55;5.70;;;2.72;;
42124;SDS011;27787;44.594;11.046;2023-07-29T08:59:39;8.73;;;2.63;;
42124;SDS011;27787;44.594;11.046;2023-07-29T09:05:08;9.52;;;2.95;;
42124;SDS011;27787;44.594;11.046;2023-07-29T09:07:53;4.40;;;2.20;;
42124;SDS011;27787;44.594;11.046;2023-07-29T09:10:39;6.82;;;3.10;;
42124;SDS011;27787;44.594;11.046;2023-07-29T09:13:23;6.55;;;2.83;;
42124;SDS011;27787;44.594;11.046;2023-07-29T09:16:08;7.97;;;2.38;;
42124;SDS011;27787;44.594;11.046;2023-07-29T09:18:52;5.05;;;2.42;;
42124;SDS011;27787;44.594;11.046;2023-07-29T09:21:40;5.18;;;2.60;;
42124;SDS011;27787;44.594;11.046;2023-07-29T09:24:25;5.38;;;2.60;;
42124;SDS011;27787;44.594;11.046;2023-07-29T09:27:26;7.80;;;2.30;;
42124;SDS011;27787;44.594;11.046;2023-07-29T09:30:17;4.85;;;2.35;;
42124;SDS011;27787;44.594;11.046;2023-07-29T09:33:01;6.30;;;2.65;;
42124;SDS011;27787;44.594;11.046;2023-07-29T09:35:46;3.80;;;2.80;;
42124;SDS011;27787;44.594;11.046;2023-07-29T09:38:30;4.25;;;2.75;;
42124;SDS011;27787;44.594;11.046;2023-07-29T09:41:15;3.65;;;2.10;;
42124;SDS011;27787;44.594;11.046;2023-07-29T09:44:00;5.85;;;2.72;;
42124;SDS011;27787;44.594;11.046;2023-07-29T09:46:45;5.22;;;2.70;;
42124;SDS011;27787;44.594;11.046;2023-07-29T09:49:30;6.43;;;2.75;;
42124;SDS011;27787;44.594;11.046;2023-07-29T09:52:21;5.60;;;2.25;;
42124;SDS011;27787;44.594;11.046;2023-07-29T09:55:06;7.30;;;2.78;;
42124;SDS011;27787;44.594;11.046;2023-07-29T09:57:57;10.98;;;2.97;;
42124;SDS011;27787;44.594;11.046;2023-07-29T10:00:44;5.43;;;2.40;;
42124;SDS011;27787;44.594;11.046;2023-07-29T10:03:29;3.75;;;2.40;;
42124;SDS011;27787;44.594;11.046;2023-07-29T10:11:44;4.13;;;2.22;;
42124;SDS011;27787;44.594;11.046;2023-07-29T10:14:53;4.28;;;2.45;;
42124;SDS011;27787;44.594;11.046;2023-07-29T10:17:38;7.97;;;2.33;;
42124;SDS011;27787;44.594;11.046;2023-07-29T10:20:23;3.90;;;2.55;;
42124;SDS011;27787;44.594;11.046;2023-07-29T10:23:08;4.55;;;2.45;;
42124;SDS011;27787;44.594;11.046;2023-07-29T10:26:04;5.15;;;2.95;;
42124;SDS011;27787;44.594;11.046;2023-07-29T10:28:49;4.47;;;2.47;;
42124;SDS011;27787;44.594;11.046;2023-07-29T10:31:36;5.07;;;2.65;;
42124;SDS011;27787;44.594;11.046;2023-07-29T10:34:22;6.45;;;2.47;;
42124;SDS011;27787;44.594;11.046;2023-07-29T10:39:53;4.22;;;2.60;;
42124;SDS011;27787;44.594;11.046;2023-07-29T10:42:38;4.63;;;2.58;;
42124;SDS011;27787;44.594;11.046;2023-07-29T10:45:44;7.85;;;2.80;;
42124;SDS011;27787;44.594;11.046;2023-07-29T10:51:25;3.85;;;2.50;;
42124;SDS011;27787;44.594;11.046;2023-07-29T10:54:13;5.15;;;2.67;;
42124;SDS011;27787;44.594;11.046;2023-07-29T10:56:58;6.40;;;2.40;;
42124;SDS011;27787;44.594;11.046;2023-07-29T11:00:01;5.32;;;2.72;;
42124;SDS011;27787;44.594;11.046;2023-07-29T11:02:59;5.22;;;2.65;;
42124;SDS011;27787;44.594;11.046;2023-07-29T11:05:49;4.95;;;2.55;;
42124;SDS011;27787;44.594;11.046;2023-07-29T11:08:35;4.35;;;2.50;;
42124;SDS011;27787;44.594;11.046;2023-07-29T11:11:19;7.38;;;2.70;;
42124;SDS011;27787;44.594;11.046;2023-07-29T11:14:03;3.22;;;2.25;;
42124;SDS011;27787;44.594;11.046;2023-07-29T11:16:49;4.18;;;2.03;;
42124;SDS011;27787;44.594;11.046;2023-07-29T11:19:34;8.98;;;2.80;;
42124;SDS011;27787;44.594;11.046;2023-07-29T11:25:05;4.13;;;2.33;;
42124;SDS011;27787;44.594;11.046;2023-07-29T11:27:52;4.78;;;2.25;;
42124;SDS011;27787;44.594;11.046;2023-07-29T11:30:41;3.67;;;2.03;;
42124;SDS011;27787;44.594;11.046;2023-07-29T11:33:25;5.03;;;2.47;;
42124;SDS011;27787;44.594;11.046;2023-07-29T11:36:19;4.38;;;2.10;;
42124;SDS011;27787;44.594;11.046;2023-07-29T11:39:09;4.65;;;2.47;;
42124;SDS011;27787;44.594;11.046;2023-07-29T11:41:53;5.25;;;2.40;;
42124;SDS011;27787;44.594;11.046;2023-07-29T11:44:37;5.10;;;2.87;;
42124;SDS011;27787;44.594;11.046;2023-07-29T11:47:22;4.15;;;2.35;;
42124;SDS011;27787;44.594;11.046;2023-07-29T11:50:07;3.10;;;2.13;;
42124;SDS011;27787;44.594;11.046;2023-07-29T11:52:57;3.67;;;2.22;;
42124;SDS011;27787;44.594;11.046;2023-07-29T11:55:42;3.10;;;1.95;;
42124;SDS011;27787;44.594;11.046;2023-07-29T11:58:26;3.00;;;2.08;;
42124;SDS011;27787;44.594;11.046;2023-07-29T12:01:11;6.25;;;2.22;;
42124;SDS011;27787;44.594;11.046;2023-07-29T12:03:55;3.78;;;2.50;;
42124;SDS011;27787;44.594;11.046;2023-07-29T12:06:41;4.03;;;2.22;;
42124;SDS011;27787;44.594;11.046;2023-07-29T12:09:26;4.30;;;2.15;;
42124;SDS011;27787;44.594;11.046;2023-07-29T12:14:55;6.78;;;2.40;;
42124;SDS011;27787;44.594;11.046;2023-07-29T12:17:40;6.07;;;2.22;;
42124;SDS011;27787;44.594;11.046;2023-07-29T12:20:25;4.60;;;2.53;;
42124;SDS011;27787;44.594;11.046;2023-07-29T12:23:10;4.50;;;2.40;;
42124;SDS011;27787;44.594;11.046;2023-07-29T12:25:58;5.65;;;2.20;;
42124;SDS011;27787;44.594;11.046;2023-07-29T12:28:46;4.30;;;2.50;;
42124;SDS011;27787;44.594;11.046;2023-07-29T12:31:31;4.53;;;2.40;;
42124;SDS011;27787;44.594;11.046;2023-07-29T12:34:19;7.50;;;2.35;;
42124;SDS011;27787;44.594;11.046;2023-07-29T12:37:04;9.35;;;2.20;;
42124;SDS011;27787;44.594;11.046;2023-07-29T12:39:50;6.03;;;2.80;;
42124;SDS011;27787;44.594;11.046;2023-07-29T12:45:19;3.30;;;2.15;;
42124;SDS011;27787;44.594;11.046;2023-07-29T12:48:05;5.03;;;2.53;;
42124;SDS011;27787;44.594;11.046;2023-07-29T12:50:49;5.87;;;2.23;;
42124;SDS011;27787;44.594;11.046;2023-07-29T12:53:33;8.02;;;2.88;;
42124;SDS011;27787;44.594;11.046;2023-07-29T12:56:17;6.80;;;2.10;;
42124;SDS011;27787;44.594;11.046;2023-07-29T12:59:01;5.28;;;2.25;;
42124;SDS011;27787;44.594;11.046;2023-07-29T13:04:30;3.45;;;2.20;;
42124;SDS011;27787;44.594;11.046;2023-07-29T13:07:14;4.60;;;2.22;;
42124;SDS011;27787;44.594;11.046;2023-07-29T13:09:58;4.57;;;2.33;;
42124;SDS011;27787;44.594;11.046;2023-07-29T13:12:43;5.13;;;2.33;;
42124;SDS011;27787;44.594;11.046;2023-07-29T13:15:27;4.45;;;2.30;;
42124;SDS011;27787;44.594;11.046;2023-07-29T13:18:11;6.30;;;2.78;;
42124;SDS011;27787;44.594;11.046;2023-07-29T13:20:56;4.07;;;2.40;;
42124;SDS011;27787;44.594;11.046;2023-07-29T13:23:40;6.30;;;2.25;;
42124;SDS011;27787;44.594;11.046;2023-07-29T13:26:25;3.88;;;2.25;;
42124;SDS011;27787;44.594;11.046;2023-07-29T13:29:09;6.47;;;2.40;;
42124;SDS011;27787;44.594;11.046;2023-07-29T13:31:53;5.30;;;2.95;;
42124;SDS011;27787;44.594;11.046;2023-07-29T13:34:37;5.85;;;2.55;;
42124;SDS011;27787;44.594;11.046;2023-07-29T13:37:24;4.80;;;2.30;;
42124;SDS011;27787;44.594;11.046;2023-07-29T13:40:08;4.35;;;2.42;;
42124;SDS011;27787;44.594;11.046;2023-07-29T13:42:53;7.90;;;2.42;;
42124;SDS011;27787;44.594;11.046;2023-07-29T13:48:21;5.70;;;2.35;;
42124;SDS011;27787;44.594;11.046;2023-07-29T13:51:06;3.22;;;2.28;;
42124;SDS011;27787;44.594;11.046;2023-07-29T13:53:50;8.38;;;2.58;;
42124;SDS011;27787;44.594;11.046;2023-07-29T13:56:34;5.30;;;2.57;;
42124;SDS011;27787;44.594;11.046;2023-07-29T13:59:18;3.87;;;2.40;;
42124;SDS011;27787;44.594;11.046;2023-07-29T14:02:02;3.73;;;2.23;;
42124;SDS011;27787;44.594;11.046;2023-07-29T14:04:46;4.13;;;2.80;;
42124;SDS011;27787;44.594;11.046;2023-07-29T14:07:30;5.47;;;2.20;;
42124;SDS011;27787;44.594;11.046;2023-07-29T14:10:14;3.97;;;2.47;;
42124;SDS011;27787;44.594;11.046;2023-07-29T14:12:58;4.03;;;2.27;;
42124;SDS011;27787;44.594;11.046;2023-07-29T14:15:42;4.37;;;2.50;;
42124;SDS011;27787;44.594;11.046;2023-07-29T14:18:26;7.15;;;2.70;;
42124;SDS011;27787;44.594;11.046;2023-07-29T15:19:23;4.68;;;2.45;;
42124;SDS011;27787;44.594;11.046;2023-07-29T15:22:07;3.53;;;2.53;;
42124;SDS011;27787;44.594;11.046;2023-07-29T15:24:51;5.63;;;2.67;;
42124;SDS011;27787;44.594;11.046;2023-07-29T15:27:36;3.58;;;2.40;;
42124;SDS011;27787;44.594;11.046;2023-07-29T15:30:21;4.32;;;2.42;;
42124;SDS011;27787;44.594;11.046;2023-07-29T15:33:05;6.03;;;2.53;;
42124;SDS011;27787;44.594;11.046;2023-07-29T15:35:49;5.25;;;2.75;;
42124;SDS011;27787;44.594;11.046;2023-07-29T15:38:35;3.90;;;2.50;;
42124;SDS011;27787;44.594;11.046;2023-07-29T15:41:19;6.72;;;2.65;;
42124;SDS011;27787;44.594;11.046;2023-07-29T15:44:04;3.40;;;2.33;;
42124;SDS011;27787;44.594;11.046;2023-07-29T15:46:48;5.93;;;3.15;;
42124;SDS011;27787;44.594;11.046;2023-07-29T15:49:35;5.40;;;3.00;;
42124;SDS011;27787;44.594;11.046;2023-07-29T15:52:19;4.63;;;2.97;;
42124;SDS011;27787;44.594;11.046;2023-07-29T15:55:03;6.70;;;2.67;;
42124;SDS011;27787;44.594;11.046;2023-07-29T15:57:49;6.38;;;3.10;;
42124;SDS011;27787;44.594;11.046;2023-07-29T16:00:34;3.70;;;2.20;;
42124;SDS011;27787;44.594;11.046;2023-07-29T16:03:18;4.47;;;2.67;;
42124;SDS011;27787;44.594;11.046;2023-07-29T16:06:02;5.93;;;2.33;;
42124;SDS011;27787;44.594;11.046;2023-07-29T16:08:47;5.72;;;2.60;;
42124;SDS011;27787;44.594;11.046;2023-07-29T16:11:30;3.87;;;2.40;;
42124;SDS011;27787;44.594;11.046;2023-07-29T16:14:15;3.38;;;2.33;;
42124;SDS011;27787;44.594;11.046;2023-07-29T16:16:59;5.28;;;2.38;;
42124;SDS011;27787;44.594;11.046;2023-07-29T16:19:54;3.65;;;2.20;;
42124;SDS011;27787;44.594;11.046;2023-07-29T16:22:39;4.72;;;2.50;;
42124;SDS011;27787;44.594;11.046;2023-07-29T16:25:23;7.20;;;2.90;;
42124;SDS011;27787;44.594;11.046;2023-07-29T16:28:07;4.47;;;2.40;;
42124;SDS011;27787;44.594;11.046;2023-07-29T16:30:52;5.88;;;2.63;;
42124;SDS011;27787;44.594;11.046;2023-07-29T16:33:37;4.43;;;2.60;;
42124;SDS011;27787;44.594;11.046;2023-07-29T16:36:21;4.32;;;2.53;;
42124;SDS011;27787;44.594;11.046;2023-07-29T16:41:49;3.08;;;2.10;;
42124;SDS011;27787;44.594;11.046;2023-07-29T16:44:33;11.30;;;2.65;;
42124;SDS011;27787;44.594;11.046;2023-07-29T16:50:01;4.38;;;2.40;;
42124;SDS011;27787;44.594;11.046;2023-07-29T16:52:46;7.00;;;2.72;;
42124;SDS011;27787;44.594;11.046;2023-07-29T16:55:32;4.72;;;2.58;;
42124;SDS011;27787;44.594;11.046;2023-07-29T16:58:16;2.72;;;2.20;;
42124;SDS011;27787;44.594;11.046;2023-07-29T17:03:45;5.00;;;2.47;;
42124;SDS011;27787;44.594;11.046;2023-07-29T17:06:29;5.53;;;2.85;;
42124;SDS011;27787;44.594;11.046;2023-07-29T17:09:13;4.43;;;2.58;;
42124;SDS011;27787;44.594;11.046;2023-07-29T17:11:57;4.25;;;2.92;;
42124;SDS011;27787;44.594;11.046;2023-07-29T17:14:43;4.50;;;2.50;;
42124;SDS011;27787;44.594;11.046;2023-07-29T17:17:26;3.95;;;2.40;;
42124;SDS011;27787;44.594;11.046;2023-07-29T17:20:10;4.63;;;2.50;;
42124;SDS011;27787;44.594;11.046;2023-07-29T17:22:55;3.53;;;2.45;;
42124;SDS011;27787;44.594;11.046;2023-07-29T17:25:39;4.25;;;2.17;;
42124;SDS011;27787;44.594;11.046;2023-07-29T17:28:23;5.35;;;2.38;;
42124;SDS011;27787;44.594;11.046;2023-07-29T17:31:07;4.82;;;2.50;;
42124;SDS011;27787;44.594;11.046;2023-07-29T17:33:51;6.07;;;2.35;;
42124;SDS011;27787;44.594;11.046;2023-07-29T17:36:35;9.63;;;2.17;;
42124;SDS011;27787;44.594;11.046;2023-07-29T17:39:19;5.80;;;2.38;;
42124;SDS011;27787;44.594;11.046;2023-07-29T17:42:04;4.35;;;2.22;;
42124;SDS011;27787;44.594;11.046;2023-07-29T17:44:50;4.15;;;2.20;;
42124;SDS011;27787;44.594;11.046;2023-07-29T17:47:33;7.90;;;2.60;;
42124;SDS011;27787;44.594;11.046;2023-07-29T17:50:17;4.00;;;2.42;;
42124;SDS011;27787;44.594;11.046;2023-07-29T17:53:03;5.70;;;2.20;;
42124;SDS011;27787;44.594;11.046;2023-07-29T17:58:31;4.78;;;2.70;;
42124;SDS011;27787;44.594;11.046;2023-07-29T18:01:15;3.50;;;2.30;;
42124;SDS011;27787;44.594;11.046;2023-07-29T18:03:59;4.47;;;2.38;;